Time;durP1;ratioP1;P1;durP2;ratioP2;P2;SDS_P1;SDS_P2;PMS_P1;PMS_P2;Temp;Humidity;BMP_temperature;BMP_pressure;BME280_temperature;BME280_humidity;BME280_pressure;Samples;Min_cycle;Max_cycle;Signal;HPM_P1;HPM_P2
2022/06/11 00:01:39;;;;;;;5.32;2.47;;;19.80;99.90;;;;;;4981891;28;20276;-57
2022/06/11 00:04:10;;;;;;;9.68;2.28;;;19.70;99.90;;;;;;4994028;28;20196;-58
2022/06/11 00:06:41;;;;;;;6.05;2.33;;;19.70;99.90;;;;;;4993532;28;20177;-58
2022/06/11 00:09:09;;;;;;;4.75;2.10;;;19.70;99.90;;;;;;4976173;28;20252;-58
2022/06/11 00:11:35;;;;;;;6.30;2.20;;;19.70;99.90;;;;;;4993650;28;20203;-58
2022/06/11 00:14:01;;;;;;;6.60;2.10;;;19.70;99.90;;;;;;4993754;28;20258;-58
2022/06/11 00:16:27;;;;;;;7.60;2.38;;;19.70;99.90;;;;;;4993510;28;20231;-58
2022/06/11 00:18:55;;;;;;;8.07;2.40;;;19.70;99.90;;;;;;4993802;28;20165;-57
2022/06/11 00:21:24;;;;;;;4.85;2.03;;;19.70;99.90;;;;;;4993791;28;20533;-58
2022/06/11 00:23:49;;;;;;;8.63;2.20;;;19.70;99.90;;;;;;4994042;28;20172;-57
2022/06/11 00:26:15;;;;;;;5.90;1.90;;;19.70;99.90;;;;;;4975887;28;20196;-57
2022/06/11 00:28:41;;;;;;;6.35;2.50;;;19.70;99.90;;;;;;4993321;28;20164;-57
2022/06/11 00:31:07;;;;;;;9.18;2.17;;;19.70;99.90;;;;;;4993198;28;20630;-57
2022/06/11 00:33:35;;;;;;;4.57;2.33;;;19.70;99.90;;;;;;4993363;28;20175;-57
2022/06/11 00:36:01;;;;;;;6.95;2.33;;;19.60;99.90;;;;;;4975925;28;20605;-57
2022/06/11 00:38:27;;;;;;;4.65;2.20;;;19.60;99.90;;;;;;4993185;28;20168;-57
2022/06/11 00:40:53;;;;;;;4.85;2.28;;;19.60;99.90;;;;;;4993502;28;20160;-58
2022/06/11 00:43:22;;;;;;;3.08;1.88;;;19.70;99.90;;;;;;4993384;28;20165;-57
2022/06/11 00:45:55;;;;;;;5.07;2.03;;;19.70;99.90;;;;;;4993030;28;20196;-57
2022/06/11 00:48:34;;;;;;;6.28;2.53;;;19.60;99.90;;;;;;4993275;28;20225;-57
2022/06/11 00:51:11;;;;;;;8.20;2.20;;;19.60;99.90;;;;;;4992989;28;20168;-57
2022/06/11 00:53:45;;;;;;;4.80;2.72;;;19.60;99.90;;;;;;4992876;28;20191;-58
2022/06/11 00:56:35;;;;;;;6.35;2.58;;;19.60;99.90;;;;;;4992711;28;20246;-57
2022/06/11 00:59:03;;;;;;;4.13;2.15;;;19.60;99.90;;;;;;4992749;28;20284;-57
2022/06/11 01:01:29;;;;;;;5.60;2.38;;;19.60;99.90;;;;;;4992868;28;20182;-57
2022/06/11 01:03:58;;;;;;;8.13;2.35;;;19.60;99.90;;;;;;4992717;28;20210;-57
2022/06/11 01:06:42;;;;;;;6.53;2.78;;;19.60;99.90;;;;;;4992653;28;20176;-57
2022/06/11 01:09:18;;;;;;;4.30;2.20;;;19.60;99.90;;;;;;4992836;28;20168;-57
2022/06/11 01:11:53;;;;;;;5.40;2.17;;;19.60;99.90;;;;;;4992595;28;20576;-57
2022/06/11 01:14:39;;;;;;;4.80;2.28;;;19.60;99.90;;;;;;4992811;28;20171;-57
2022/06/11 01:17:24;;;;;;;5.25;2.22;;;19.60;99.90;;;;;;4992676;28;20208;-58
2022/06/11 01:20:31;;;;;;;7.78;2.20;;;19.60;99.90;;;;;;4993015;28;20172;-58
2022/06/11 01:23:37;;;;;;;4.95;2.33;;;19.60;99.90;;;;;;4992485;28;20165;-57
2022/06/11 01:26:26;;;;;;;6.15;2.45;;;19.50;99.90;;;;;;4992493;28;20156;-57
2022/06/11 01:29:10;;;;;;;5.85;2.20;;;19.50;99.90;;;;;;4992838;28;20172;-57
2022/06/11 01:31:49;;;;;;;5.70;2.35;;;19.50;99.90;;;;;;4992479;28;20650;-58
2022/06/11 01:34:28;;;;;;;6.15;2.70;;;19.50;99.90;;;;;;4992433;28;20184;-58
2022/06/11 01:37:07;;;;;;;3.03;2.10;;;19.50;99.90;;;;;;4992353;28;20697;-57
2022/06/11 01:39:42;;;;;;;6.10;2.55;;;19.40;99.90;;;;;;4992353;28;20172;-58
2022/06/11 01:42:20;;;;;;;4.40;2.20;;;19.40;99.90;;;;;;4992381;28;20168;-57
2022/06/11 01:44:57;;;;;;;7.53;2.38;;;19.40;99.90;;;;;;4992374;28;20164;-57
2022/06/11 01:47:23;;;;;;;4.65;2.63;;;19.40;99.90;;;;;;4992132;28;20178;-57
2022/06/11 01:49:49;;;;;;;8.88;2.33;;;19.40;99.90;;;;;;4992604;28;20181;-58
2022/06/11 01:52:29;;;;;;;7.60;2.60;;;19.40;99.90;;;;;;4992373;28;20629;-57
2022/06/11 01:55:11;;;;;;;6.97;1.92;;;19.40;99.90;;;;;;4992174;28;20172;-58
2022/06/11 01:58:01;;;;;;;6.47;2.15;;;19.40;99.90;;;;;;4992242;28;20185;-58
2022/06/11 02:00:33;;;;;;;4.68;2.33;;;19.40;99.90;;;;;;4992250;28;20196;-58
2022/06/11 02:03:02;;;;;;;4.72;2.33;;;19.40;99.90;;;;;;4992223;28;20251;-57
2022/06/11 02:05:34;;;;;;;5.22;2.30;;;19.40;99.90;;;;;;4992220;28;20165;-57
2022/06/11 02:08:35;;;;;;;5.20;2.60;;;19.40;99.90;;;;;;4992142;28;20196;-57
2022/06/11 02:11:21;;;;;;;10.70;2.97;;;19.40;99.90;;;;;;4995751;28;20246;-57
2022/06/11 02:13:53;;;;;;;4.93;2.63;;;19.40;99.90;;;;;;4995950;28;20586;-57
2022/06/11 02:16:25;;;;;;;6.70;2.70;;;19.40;99.90;;;;;;4995975;28;20193;-57
2022/06/11 02:18:53;;;;;;;6.07;2.40;;;19.40;99.90;;;;;;4996255;28;20167;-57
2022/06/11 02:21:26;;;;;;;3.85;2.45;;;19.40;99.90;;;;;;4996019;28;20169;-58
2022/06/11 02:24:09;;;;;;;5.72;2.50;;;19.30;99.90;;;;;;4996312;28;20502;-57
2022/06/11 02:26:39;;;;;;;4.05;2.47;;;19.20;99.90;;;;;;4978143;28;20243;-57
2022/06/11 02:29:06;;;;;;;4.88;2.70;;;19.20;99.90;;;;;;4995884;28;20173;-57
2022/06/11 02:31:48;;;;;;;5.30;2.42;;;19.20;99.90;;;;;;4995446;28;20642;-57
2022/06/11 02:34:16;;;;;;;7.68;2.67;;;19.10;99.90;;;;;;4995492;28;20183;-57
2022/06/11 02:36:56;;;;;;;8.43;2.75;;;19.00;99.90;;;;;;4995320;28;20201;-57
2022/06/11 02:39:22;;;;;;;8.10;2.55;;;19.00;99.90;;;;;;4995627;28;20522;-58
2022/06/11 02:41:48;;;;;;;4.53;2.63;;;18.90;99.90;;;;;;4995453;28;20172;-58
2022/06/11 02:44:14;;;;;;;10.68;2.80;;;18.90;99.90;;;;;;4995539;28;20196;-57
2022/06/11 02:46:43;;;;;;;5.75;2.55;;;18.90;99.90;;;;;;4995566;28;20212;-57
2022/06/11 02:49:16;;;;;;;8.95;3.00;;;18.90;99.90;;;;;;4995106;28;20257;-58
2022/06/11 02:51:42;;;;;;;7.07;2.88;;;18.80;99.90;;;;;;4995163;28;20208;-57
2022/06/11 02:54:08;;;;;;;10.65;2.50;;;18.80;99.90;;;;;;4995135;28;20199;-57
2022/06/11 02:56:34;;;;;;;3.30;2.28;;;18.80;99.90;;;;;;4995091;28;20240;-58
2022/06/11 02:58:59;;;;;;;4.40;2.42;;;18.70;99.90;;;;;;4995110;28;20321;-57
2022/06/11 03:01:25;;;;;;;5.28;2.72;;;18.80;99.90;;;;;;4995029;28;20222;-57
2022/06/11 03:03:51;;;;;;;4.28;2.65;;;18.70;99.90;;;;;;4977877;28;20627;-57
2022/06/11 03:06:19;;;;;;;7.30;2.55;;;18.70;99.90;;;;;;4994875;28;20165;-57
2022/06/11 03:08:45;;;;;;;7.28;2.55;;;18.60;99.90;;;;;;4994761;28;20176;-57
2022/06/11 03:11:12;;;;;;;7.43;3.25;;;18.60;99.90;;;;;;4994782;28;20653;-57
2022/06/11 03:13:37;;;;;;;4.93;2.35;;;18.60;99.90;;;;;;4994777;28;20164;-57
2022/06/11 03:16:03;;;;;;;3.55;2.63;;;18.60;99.90;;;;;;4994612;28;20207;-57
2022/06/11 03:18:29;;;;;;;9.10;3.08;;;18.50;99.90;;;;;;4994707;28;20192;-58
2022/06/11 03:20:55;;;;;;;7.38;2.55;;;18.50;99.90;;;;;;4993681;28;20192;-57
2022/06/11 03:23:21;;;;;;;7.97;2.50;;;18.50;99.90;;;;;;4995150;28;20534;-57
2022/06/11 03:25:47;;;;;;;6.80;2.80;;;18.50;99.90;;;;;;4994519;28;20169;-57
2022/06/11 03:28:19;;;;;;;3.25;2.45;;;18.50;99.90;;;;;;4994501;28;20247;-57
2022/06/11 03:30:45;;;;;;;5.00;2.70;;;18.50;99.90;;;;;;4994458;28;20165;-58
2022/06/11 03:33:12;;;;;;;7.93;3.00;;;18.40;99.90;;;;;;4994622;28;20183;-58
2022/06/11 03:35:38;;;;;;;6.40;2.75;;;18.40;99.90;;;;;;4994391;28;20193;-57
2022/06/11 03:38:07;;;;;;;9.30;3.25;;;18.40;99.90;;;;;;4994335;28;20224;-57
2022/06/11 03:40:33;;;;;;;8.90;3.10;;;18.40;99.90;;;;;;4994247;28;20262;-57
2022/06/11 03:42:59;;;;;;;11.00;2.78;;;18.40;99.90;;;;;;4994206;28;20165;-57
2022/06/11 03:45:25;;;;;;;7.00;2.70;;;18.40;99.90;;;;;;4976611;28;20512;-57
2022/06/11 03:47:51;;;;;;;7.13;3.08;;;18.40;99.90;;;;;;4994318;28;20327;-57
2022/06/11 03:50:23;;;;;;;9.77;2.88;;;18.40;99.90;;;;;;4994437;28;20168;-57
2022/06/11 03:52:49;;;;;;;6.57;2.80;;;17.80;99.90;;;;;;4994337;28;20177;-57
2022/06/11 03:55:15;;;;;;;7.03;3.10;;;18.40;99.90;;;;;;4993944;28;20179;-57
2022/06/11 03:57:41;;;;;;;9.63;3.78;;;18.40;99.90;;;;;;4993900;28;20172;-57
2022/06/11 04:00:11;;;;;;;8.48;3.28;;;18.40;99.90;;;;;;4993848;28;20268;-57
2022/06/11 04:02:37;;;;;;;7.53;3.30;;;18.40;99.90;;;;;;4993789;28;20179;-57
2022/06/11 04:05:05;;;;;;;8.55;3.17;;;18.40;99.90;;;;;;4993844;28;20165;-57
2022/06/11 04:07:32;;;;;;;12.23;3.17;;;18.50;99.90;;;;;;4993826;28;20517;-57
2022/06/11 04:09:58;;;;;;;5.03;2.75;;;18.50;99.90;;;;;;4993685;28;20179;-57
2022/06/11 04:12:23;;;;;;;9.48;3.00;;;18.60;99.90;;;;;;4993823;28;20165;-57
2022/06/11 04:14:50;;;;;;;8.98;3.15;;;18.60;99.90;;;;;;4993960;28;20219;-57
2022/06/11 04:17:29;;;;;;;10.25;3.33;;;18.70;99.90;;;;;;4993553;28;20204;-57
2022/06/11 04:19:56;;;;;;;9.88;3.08;;;18.80;99.90;;;;;;4993546;28;20708;-57
2022/06/11 04:22:22;;;;;;;7.90;2.55;;;18.80;99.90;;;;;;4993538;28;20222;-57
2022/06/11 04:24:48;;;;;;;10.82;3.45;;;18.90;99.90;;;;;;4993755;28;20176;-57
2022/06/11 04:27:16;;;;;;;6.57;3.20;;;18.90;99.90;;;;;;4993347;28;20247;-57
2022/06/11 04:29:46;;;;;;;5.95;2.50;;;19.00;99.90;;;;;;4993334;28;20164;-57
2022/06/11 04:32:15;;;;;;;5.93;2.85;;;18.90;99.90;;;;;;4993045;28;20207;-58
2022/06/11 04:34:43;;;;;;;3.80;2.38;;;19.00;99.90;;;;;;4993462;28;20226;-58
2022/06/11 04:37:13;;;;;;;3.72;2.60;;;19.00;99.90;;;;;;4993157;28;20698;-58
2022/06/11 04:39:46;;;;;;;4.55;2.78;;;19.10;99.90;;;;;;4993420;28;20533;-58
2022/06/11 04:42:13;;;;;;;5.22;2.60;;;19.10;99.90;;;;;;4993370;28;20168;-57
2022/06/11 04:44:41;;;;;;;9.52;3.28;;;19.10;99.90;;;;;;4993109;28;20177;-57
2022/06/11 04:47:08;;;;;;;6.15;2.38;;;19.10;99.90;;;;;;4993225;28;20259;-57
2022/06/11 04:49:35;;;;;;;7.35;3.13;;;19.10;99.90;;;;;;4992831;28;20418;-57
2022/06/11 04:52:01;;;;;;;6.43;2.60;;;19.00;99.90;;;;;;4992958;28;20176;-58
2022/06/11 04:54:26;;;;;;;5.47;2.30;;;19.10;99.90;;;;;;4992849;28;20638;-58
2022/06/11 04:56:52;;;;;;;3.08;2.20;;;19.10;99.90;;;;;;4992804;28;20219;-57
2022/06/11 04:59:18;;;;;;;5.15;2.15;;;19.10;99.90;;;;;;4993184;28;20164;-57
2022/06/11 05:01:44;;;;;;;4.05;2.40;;;19.10;99.90;;;;;;4992828;28;20173;-57
2022/06/11 05:04:11;;;;;;;4.43;2.30;;;19.20;99.90;;;;;;4992721;28;20164;-57
2022/06/11 05:06:39;;;;;;;9.63;2.92;;;19.20;99.90;;;;;;4992746;28;20251;-57
2022/06/11 05:09:07;;;;;;;7.18;2.70;;;19.30;99.90;;;;;;4992885;28;20169;-57
2022/06/11 05:11:33;;;;;;;6.25;2.42;;;19.30;99.90;;;;;;4992877;28;20638;-57
2022/06/11 05:13:59;;;;;;;4.95;2.30;;;19.40;99.90;;;;;;4992648;28;20215;-57
2022/06/11 05:16:25;;;;;;;5.15;2.63;;;19.30;99.90;;;;;;4992499;28;20258;-57
2022/06/11 05:18:51;;;;;;;4.45;2.30;;;19.40;99.90;;;;;;4992830;28;20160;-57
2022/06/11 05:21:17;;;;;;;5.60;2.38;;;19.50;99.90;;;;;;4992852;28;20559;-57
2022/06/11 05:23:43;;;;;;;6.18;3.08;;;19.50;99.90;;;;;;4992564;28;20183;-57
2022/06/11 05:26:18;;;;;;;5.88;2.60;;;19.60;99.90;;;;;;4992497;28;20180;-57
2022/06/11 05:28:44;;;;;;;8.30;2.60;;;19.60;99.90;;;;;;4992466;28;20172;-57
2022/06/11 05:31:10;;;;;;;5.45;2.40;;;19.60;99.90;;;;;;4992716;28;20231;-57
2022/06/11 05:33:37;;;;;;;2.95;2.10;;;19.70;99.90;;;;;;4992642;28;20180;-56
2022/06/11 05:36:03;;;;;;;3.95;2.20;;;19.80;99.90;;;;;;4992425;28;20251;-57
2022/06/11 05:38:29;;;;;;;5.30;2.55;;;19.80;99.90;;;;;;4992330;28;20165;-56
2022/06/11 05:40:56;;;;;;;5.75;3.15;;;19.80;99.90;;;;;;4992368;28;20630;-56
2022/06/11 05:43:23;;;;;;;4.90;1.92;;;19.80;99.90;;;;;;4992650;28;20231;-57
2022/06/11 05:45:56;;;;;;;4.75;2.33;;;19.80;99.90;;;;;;4996529;28;20247;-56
2022/06/11 05:48:27;;;;;;;7.93;2.33;;;19.80;99.90;;;;;;4996236;28;20212;-56
2022/06/11 05:50:55;;;;;;;5.20;2.35;;;19.90;99.90;;;;;;4996400;28;20173;-56
2022/06/11 05:53:25;;;;;;;4.47;2.30;;;20.10;99.90;;;;;;4996490;28;20165;-56
2022/06/11 05:55:52;;;;;;;4.72;2.10;;;20.20;99.90;;;;;;4996166;28;20207;-57
2022/06/11 05:58:22;;;;;;;3.40;2.20;;;20.20;99.90;;;;;;4996284;28;20165;-56
2022/06/11 06:00:48;;;;;;;4.15;2.45;;;20.20;99.90;;;;;;4995978;28;20184;-56
2022/06/11 06:03:14;;;;;;;7.55;2.30;;;20.20;99.90;;;;;;4996296;28;20164;-57
2022/06/11 06:05:40;;;;;;;6.03;3.03;;;20.30;99.90;;;;;;4996025;28;20176;-56
2022/06/11 06:08:09;;;;;;;4.72;2.42;;;20.30;99.90;;;;;;4996711;28;20169;-57
2022/06/11 06:10:35;;;;;;;6.00;2.15;;;20.50;99.90;;;;;;4996166;28;20700;-57
2022/06/11 06:13:01;;;;;;;5.95;2.58;;;20.60;99.90;;;;;;4996050;28;20180;-57
2022/06/11 06:15:30;;;;;;;7.85;2.20;;;20.60;99.90;;;;;;4995844;28;20169;-54
2022/06/11 06:17:56;;;;;;;5.88;2.53;;;20.60;99.90;;;;;;4995975;28;20212;-54
2022/06/11 06:20:23;;;;;;;4.35;2.47;;;20.70;99.90;;;;;;4995664;28;20223;-54
2022/06/11 06:22:49;;;;;;;4.75;2.10;;;20.80;99.90;;;;;;4996036;28;20173;-55
2022/06/11 06:25:19;;;;;;;4.00;2.50;;;20.90;99.90;;;;;;4995626;28;20172;-55
2022/06/11 06:27:45;;;;;;;5.60;2.35;;;20.90;99.90;;;;;;4995936;28;20223;-54
2022/06/11 06:30:11;;;;;;;3.50;1.98;;;21.00;99.90;;;;;;4995455;28;20168;-55
2022/06/11 06:32:37;;;;;;;4.25;2.72;;;21.10;99.90;;;;;;4995472;28;20165;-55
2022/06/11 06:35:03;;;;;;;4.72;2.60;;;21.00;99.90;;;;;;4995451;28;20176;-55
2022/06/11 06:37:29;;;;;;;3.45;2.08;;;20.90;99.90;;;;;;4995225;28;20212;-54
2022/06/11 06:39:54;;;;;;;6.28;2.08;;;21.00;99.90;;;;;;4995579;28;20219;-54
2022/06/11 06:42:20;;;;;;;5.53;2.38;;;21.00;99.90;;;;;;4995479;28;20661;-54
2022/06/11 06:44:46;;;;;;;4.00;2.55;;;21.10;99.90;;;;;;4995459;28;20172;-54
2022/06/11 06:47:11;;;;;;;3.38;2.30;;;21.10;99.90;;;;;;4995299;28;20626;-54
2022/06/11 06:49:37;;;;;;;5.43;2.20;;;21.10;99.90;;;;;;4994663;28;20220;-55
2022/06/11 06:52:03;;;;;;;5.53;2.20;;;21.10;99.90;;;;;;4995213;28;20176;-55
2022/06/11 06:54:28;;;;;;;4.00;2.30;;;21.20;99.90;;;;;;4994854;28;20181;-55
2022/06/11 06:56:54;;;;;;;2.83;2.10;;;21.20;99.90;;;;;;4994685;28;20212;-54
2022/06/11 06:59:20;;;;;;;3.35;2.17;;;21.30;99.90;;;;;;4995357;28;20161;-55
2022/06/11 07:01:45;;;;;;;3.92;2.33;;;21.30;99.90;;;;;;4995161;28;20171;-57
2022/06/11 07:04:12;;;;;;;3.63;2.05;;;21.30;99.90;;;;;;4977123;28;20264;-58
2022/06/11 07:06:40;;;;;;;3.88;2.17;;;21.50;99.90;;;;;;4994992;28;20223;-58
2022/06/11 07:09:06;;;;;;;3.95;2.17;;;21.50;99.90;;;;;;4994771;28;20596;-57
2022/06/11 07:11:32;;;;;;;2.97;2.10;;;21.50;99.90;;;;;;4994914;28;20169;-57
2022/06/11 07:13:58;;;;;;;3.05;2.10;;;21.60;99.90;;;;;;4994698;28;20177;-57
2022/06/11 07:16:33;;;;;;;3.00;2.30;;;21.80;99.90;;;;;;4994655;28;20223;-57
2022/06/11 07:19:03;;;;;;;4.97;2.28;;;21.70;99.90;;;;;;4994697;28;20649;-57
2022/06/11 07:21:34;;;;;;;3.83;2.20;;;21.90;99.90;;;;;;4994684;28;20184;-57
2022/06/11 07:24:03;;;;;;;5.47;2.30;;;21.90;99.90;;;;;;4993006;28;20251;-57
2022/06/11 07:26:36;;;;;;;2.90;2.08;;;22.10;99.90;;;;;;4994470;28;20169;-54
2022/06/11 07:29:09;;;;;;;3.75;2.20;;;22.20;99.90;;;;;;4994332;28;20315;-52
2022/06/11 07:31:36;;;;;;;6.93;2.50;;;22.30;99.90;;;;;;4994557;28;20204;-51
2022/06/11 07:34:02;;;;;;;5.50;2.53;;;22.40;99.90;;;;;;4993971;28;20194;-55
2022/06/11 07:36:29;;;;;;;3.55;1.98;;;22.40;99.90;;;;;;4994365;28;20247;-52
2022/06/11 07:38:54;;;;;;;2.80;2.20;;;22.40;99.90;;;;;;4994172;28;20318;-54
2022/06/11 07:41:20;;;;;;;5.68;2.50;;;22.50;99.90;;;;;;4994187;28;20745;-48
2022/06/11 07:43:45;;;;;;;4.65;2.80;;;22.40;99.90;;;;;;4994214;28;20211;-54
2022/06/11 07:46:11;;;;;;;6.00;2.53;;;22.40;99.90;;;;;;4993930;28;20180;-55
2022/06/11 07:48:37;;;;;;;5.25;2.45;;;22.30;99.90;;;;;;4993635;28;20247;-52
2022/06/11 07:51:02;;;;;;;5.20;2.80;;;22.20;99.90;;;;;;4993687;28;20205;-56
2022/06/11 07:53:28;;;;;;;4.10;2.58;;;22.20;99.90;;;;;;4993728;28;20573;-51
2022/06/11 07:55:55;;;;;;;7.35;4.13;;;22.10;99.90;;;;;;4993429;28;20407;-53
2022/06/11 07:58:25;;;;;;;5.32;3.88;;;22.20;99.90;;;;;;4993845;28;20187;-55
2022/06/11 08:00:52;;;;;;;6.20;5.57;;;22.10;99.90;;;;;;4993632;28;20173;-55
2022/06/11 08:03:19;;;;;;;10.65;7.00;;;22.30;99.90;;;;;;4993706;28;20212;-55
2022/06/11 08:05:46;;;;;;;3.92;3.15;;;22.30;99.90;;;;;;4993428;28;20184;-56
2022/06/11 08:08:13;;;;;;;5.00;3.20;;;22.70;99.90;;;;;;4992432;28;20215;-56
2022/06/11 08:10:41;;;;;;;5.00;3.35;;;22.60;99.90;;;;;;4992807;28;20199;-56
2022/06/11 08:13:08;;;;;;;8.40;3.50;;;22.60;99.90;;;;;;4992827;28;20169;-55
2022/06/11 08:15:35;;;;;;;5.10;2.80;;;22.50;99.90;;;;;;4991764;28;20199;-55
2022/06/11 08:18:01;;;;;;;4.32;3.40;;;22.50;99.90;;;;;;4993416;28;20184;-56
2022/06/11 08:20:29;;;;;;;5.32;3.28;;;22.40;99.90;;;;;;4993301;28;20207;-56
2022/06/11 08:22:55;;;;;;;6.95;3.25;;;22.40;99.90;;;;;;4993287;28;20719;-55
2022/06/11 08:25:22;;;;;;;7.75;4.78;;;22.40;99.90;;;;;;4993359;28;20169;-55
2022/06/11 08:27:48;;;;;;;5.85;3.90;;;22.30;99.90;;;;;;4993506;28;20189;-55
2022/06/11 08:30:17;;;;;;;8.10;5.50;;;22.30;99.90;;;;;;4993200;28;20200;-55
2022/06/11 08:32:43;;;;;;;6.93;3.88;;;22.20;99.90;;;;;;4993444;28;20173;-55
2022/06/11 08:35:10;;;;;;;6.88;3.30;;;22.10;99.90;;;;;;4993055;28;20222;-56
2022/06/11 08:37:36;;;;;;;5.57;3.30;;;22.20;99.90;;;;;;4993044;28;20345;-55
2022/06/11 08:40:10;;;;;;;6.53;5.32;;;22.10;99.90;;;;;;4993208;28;20174;-55
2022/06/11 08:42:39;;;;;;;7.80;2.60;;;22.20;99.90;;;;;;4993029;28;20169;-56
2022/06/11 08:45:22;;;;;;;9.00;5.70;;;22.10;99.90;;;;;;4992928;28;20189;-55
2022/06/11 08:47:51;;;;;;;8.20;5.68;;;22.20;99.90;;;;;;4993037;28;20359;-55
2022/06/11 08:50:26;;;;;;;8.55;6.43;;;22.00;99.90;;;;;;4993290;28;20168;-55
2022/06/11 08:52:51;;;;;;;7.57;3.05;;;22.20;99.90;;;;;;4992873;28;20330;-55
2022/06/11 08:55:18;;;;;;;8.88;2.60;;;22.50;99.90;;;;;;4993107;28;20690;-55
2022/06/11 08:58:01;;;;;;;6.22;2.65;;;22.40;99.90;;;;;;4998643;28;20212;-54
2022/06/11 09:00:59;;;;;;;5.88;2.80;;;22.50;99.90;;;;;;5001658;28;20164;-55
2022/06/11 09:04:00;;;;;;;4.80;2.63;;;22.70;99.90;;;;;;4958646;28;20188;-55
2022/06/11 09:06:50;;;;;;;4.65;3.05;;;22.50;99.90;;;;;;5012018;28;20193;-55
2022/06/11 09:09:31;;;;;;;8.35;2.40;;;22.40;99.90;;;;;;5012513;28;20709;-55
2022/06/11 09:12:17;;;;;;;5.75;2.50;;;22.70;99.90;;;;;;5012066;28;20163;-55
2022/06/11 09:15:30;;;;;;;3.33;2.33;;;22.80;99.90;;;;;;5011635;28;20174;-55
2022/06/11 09:18:33;;;;;;;4.47;2.25;;;23.30;99.90;;;;;;4937475;28;20241;-55
2022/06/11 09:21:18;;;;;;;5.63;2.25;;;23.50;99.90;;;;;;5011970;28;20637;-55
2022/06/11 09:24:21;;;;;;;3.67;2.45;;;23.80;99.90;;;;;;5011841;28;20628;-55
2022/06/11 09:27:17;;;;;;;3.53;2.00;;;23.80;99.90;;;;;;5012218;28;20175;-55
2022/06/11 09:30:06;;;;;;;3.85;1.85;;;23.60;99.90;;;;;;5011966;28;20175;-55
2022/06/11 09:32:42;;;;;;;3.13;1.83;;;23.30;99.90;;;;;;5011331;28;20548;-54
2022/06/11 09:35:14;;;;;;;5.30;2.38;;;23.50;99.90;;;;;;4994229;28;20171;-55
2022/06/11 09:37:46;;;;;;;4.22;2.33;;;23.70;99.90;;;;;;5008132;28;20203;-54
2022/06/11 09:40:32;;;;;;;3.53;2.10;;;24.00;99.90;;;;;;4992468;28;20538;-54
2022/06/11 09:43:25;;;;;;;5.05;2.10;;;24.30;99.90;;;;;;4992083;28;20546;-55
2022/06/11 09:46:02;;;;;;;3.83;2.63;;;24.20;99.90;;;;;;4992460;28;20242;-55
2022/06/11 09:48:41;;;;;;;3.35;2.47;;;24.20;99.90;;;;;;4991949;28;20575;-54
2022/06/11 09:51:30;;;;;;;4.03;2.88;;;24.20;99.90;;;;;;4992148;28;20187;-55
2022/06/11 09:54:15;;;;;;;2.97;2.25;;;24.10;99.90;;;;;;4991594;28;20168;-55
2022/06/11 09:57:17;;;;;;;4.05;2.55;;;24.40;99.90;;;;;;4991226;28;20211;-55
2022/06/11 09:59:51;;;;;;;6.85;2.72;;;24.60;99.90;;;;;;4992064;28;20633;-55
2022/06/11 10:02:58;;;;;;;3.75;2.45;;;24.90;99.90;;;;;;4992727;28;20184;-55
2022/06/11 10:05:29;;;;;;;2.97;2.30;;;25.00;99.90;;;;;;4955805;28;20180;-55
2022/06/11 10:08:18;;;;;;;4.30;2.80;;;25.10;99.90;;;;;;4991919;28;20164;-55
2022/06/11 10:10:45;;;;;;;4.35;2.70;;;25.00;99.90;;;;;;4992376;28;20256;-55
2022/06/11 10:13:39;;;;;;;3.03;2.72;;;25.00;99.90;;;;;;4991863;28;20172;-55
2022/06/11 10:16:21;;;;;;;2.95;2.65;;;24.70;99.90;;;;;;4991818;28;20218;-55
2022/06/11 10:18:49;;;;;;;4.47;2.92;;;24.50;99.90;;;;;;4992298;28;20156;-56
2022/06/11 10:21:20;;;;;;;2.63;2.25;;;24.70;99.90;;;;;;4992302;28;20169;-56
2022/06/11 10:23:58;;;;;;;4.07;2.60;;;24.90;99.90;;;;;;4992125;28;20160;-55
2022/06/11 10:26:29;;;;;;;5.40;2.85;;;25.20;99.90;;;;;;4991988;28;20178;-55
2022/06/11 10:29:17;;;;;;;2.40;2.20;;;24.90;99.90;;;;;;4991227;28;20638;-55
2022/06/11 10:32:05;;;;;;;2.67;2.47;;;25.30;99.90;;;;;;4978521;28;20176;-56
2022/06/11 10:34:31;;;;;;;4.55;2.70;;;25.30;99.90;;;;;;4995092;28;20227;-55
2022/06/11 10:37:12;;;;;;;5.53;3.17;;;25.70;99.90;;;;;;4995140;28;20212;-55
2022/06/11 10:40:00;;;;;;;7.45;2.80;;;25.90;99.90;;;;;;4994975;28;20215;-55
2022/06/11 10:42:37;;;;;;;6.15;3.58;;;25.30;99.90;;;;;;4995257;28;20533;-55
2022/06/11 10:45:03;;;;;;;4.95;3.47;;;25.20;99.90;;;;;;4995168;28;20192;-55
2022/06/11 10:47:37;;;;;;;7.47;3.33;;;25.30;99.90;;;;;;4994975;28;20733;-55
2022/06/11 10:50:07;;;;;;;8.35;3.13;;;25.50;99.90;;;;;;4995107;28;20540;-56
2022/06/11 10:52:52;;;;;;;6.72;4.10;;;26.00;99.90;;;;;;4994674;28;20176;-56
2022/06/11 10:55:29;;;;;;;4.53;3.08;;;26.30;99.90;;;;;;4995151;28;20219;-56
2022/06/11 10:57:56;;;;;;;7.43;3.58;;;25.80;99.90;;;;;;4994926;28;20199;-56
2022/06/11 11:00:27;;;;;;;3.70;3.40;;;25.60;99.90;;;;;;4994669;28;20638;-55
2022/06/11 11:02:58;;;;;;;12.50;3.70;;;25.70;99.90;;;;;;4994428;28;20179;-55
2022/06/11 11:05:24;;;;;;;6.93;3.78;;;26.00;99.90;;;;;;4994437;28;20696;-56
2022/06/11 11:08:02;;;;;;;5.15;3.90;;;25.70;99.90;;;;;;4994879;28;20259;-56
2022/06/11 11:10:37;;;;;;;8.95;4.47;;;25.40;99.90;;;;;;4994708;28;20164;-55
2022/06/11 11:13:12;;;;;;;5.80;3.70;;;25.70;99.90;;;;;;4994483;28;20193;-56
2022/06/11 11:15:46;;;;;;;5.47;3.40;;;25.90;99.90;;;;;;4994472;28;20168;-56
2022/06/11 11:18:26;;;;;;;5.15;3.78;;;26.20;99.90;;;;;;4994575;28;20172;-56
2022/06/11 11:20:56;;;;;;;6.10;3.50;;;25.80;99.90;;;;;;4994741;28;20633;-55
2022/06/11 11:23:40;;;;;;;4.60;3.55;;;25.50;99.90;;;;;;4993957;28;20176;-56
2022/06/11 11:26:24;;;;;;;5.72;3.40;;;25.50;99.90;;;;;;4994331;28;20172;-56
2022/06/11 11:29:16;;;;;;;3.83;3.42;;;25.80;99.90;;;;;;4976858;28;20196;-56
2022/06/11 11:31:43;;;;;;;5.68;3.47;;;26.00;99.90;;;;;;4993369;28;20203;-56
2022/06/11 11:34:21;;;;;;;6.00;4.18;;;25.70;99.90;;;;;;4994036;28;20223;-56
2022/06/11 11:36:47;;;;;;;5.45;3.75;;;25.80;99.90;;;;;;4994458;28;20207;-56
2022/06/11 11:39:13;;;;;;;6.28;3.30;;;26.00;99.90;;;;;;4994130;28;20626;-55
2022/06/11 11:41:46;;;;;;;4.32;2.88;;;26.30;99.90;;;;;;4975483;28;20182;-55
2022/06/11 11:44:21;;;;;;;4.20;2.83;;;26.10;99.90;;;;;;4994088;28;20168;-55
2022/06/11 11:47:00;;;;;;;3.80;2.95;;;26.40;99.90;;;;;;4994303;28;20532;-55
2022/06/11 11:49:33;;;;;;;3.70;2.53;;;26.30;99.90;;;;;;4993569;28;20219;-56
2022/06/11 11:52:18;;;;;;;4.57;2.58;;;26.40;99.90;;;;;;4976446;28;20176;-55
2022/06/11 11:55:11;;;;;;;7.03;2.50;;;26.40;99.90;;;;;;4994355;28;20172;-55
2022/06/11 11:57:37;;;;;;;3.65;2.78;;;26.20;99.90;;;;;;4994062;28;20235;-55
2022/06/11 12:00:25;;;;;;;3.13;2.78;;;26.00;99.90;;;;;;4976216;28;20608;-55
2022/06/11 12:02:55;;;;;;;4.22;2.72;;;26.00;99.90;;;;;;4993982;28;20180;-55
2022/06/11 12:05:27;;;;;;;5.15;2.55;;;26.10;99.90;;;;;;4993540;28;20573;-55
2022/06/11 12:07:55;;;;;;;5.13;2.33;;;26.40;99.90;;;;;;4993762;28;20168;-55
2022/06/11 12:10:39;;;;;;;4.60;2.65;;;26.40;99.90;;;;;;4993615;28;20251;-55
2022/06/11 12:13:19;;;;;;;6.35;2.83;;;26.60;99.90;;;;;;4993360;28;20218;-56
2022/06/11 12:15:55;;;;;;;5.60;2.90;;;26.50;99.90;;;;;;4993597;28;20655;-56
2022/06/11 12:18:27;;;;;;;5.00;3.00;;;26.70;99.90;;;;;;4993859;28;20180;-55
2022/06/11 12:21:00;;;;;;;8.20;2.70;;;26.90;99.90;;;;;;4993280;28;20570;-55
2022/06/11 12:23:44;;;;;;;4.28;2.70;;;27.00;99.90;;;;;;4993284;28;20207;-55
2022/06/11 12:26:20;;;;;;;3.70;2.28;;;26.70;99.90;;;;;;4993559;28;20178;-56
2022/06/11 12:29:05;;;;;;;2.60;2.10;;;26.90;99.90;;;;;;4976059;28;20159;-56
2022/06/11 12:31:31;;;;;;;4.82;2.20;;;26.40;99.90;;;;;;4993119;28;20171;-56
2022/06/11 12:33:58;;;;;;;5.35;2.70;;;26.50;99.90;;;;;;4993151;28;20168;-56
2022/06/11 12:36:51;;;;;;;3.88;2.47;;;26.70;99.90;;;;;;4992940;28;20246;-56
2022/06/11 12:39:38;;;;;;;5.97;2.28;;;26.80;99.90;;;;;;4993236;28;20168;-55
2022/06/11 12:42:34;;;;;;;4.95;2.50;;;26.60;99.90;;;;;;4992797;28;20172;-56
2022/06/11 12:45:19;;;;;;;2.08;1.83;;;26.90;99.90;;;;;;4992961;28;20171;-56
2022/06/11 12:48:03;;;;;;;6.25;1.90;;;26.70;99.90;;;;;;4993121;28;20204;-55
2022/06/11 12:50:53;;;;;;;1.95;1.75;;;26.50;99.90;;;;;;4992918;28;20215;-56
2022/06/11 12:53:33;;;;;;;4.20;2.17;;;26.50;99.90;;;;;;4992579;28;20263;-55
2022/06/11 12:56:14;;;;;;;3.47;2.10;;;26.20;99.90;;;;;;4992651;28;20209;-55
2022/06/11 12:59:07;;;;;;;5.43;2.13;;;26.20;99.90;;;;;;4992719;28;20160;-56
2022/06/11 13:01:36;;;;;;;5.05;2.45;;;26.30;99.90;;;;;;4992849;28;20168;-55
2022/06/11 13:04:07;;;;;;;5.18;1.90;;;26.70;99.90;;;;;;4992523;28;20187;-55
2022/06/11 13:07:06;;;;;;;3.20;2.10;;;26.70;99.90;;;;;;4992801;28;20243;-55
2022/06/11 13:09:43;;;;;;;4.63;2.13;;;26.50;99.90;;;;;;4992666;28;20199;-55
2022/06/11 13:12:15;;;;;;;4.28;2.20;;;26.80;99.90;;;;;;4992649;28;20164;-55
2022/06/11 13:14:54;;;;;;;2.85;1.60;;;26.90;99.90;;;;;;4992610;28;20701;-56